sensor_id;sensor_type;location;lat;lon;timestamp;pressure;altitude;pressure_sealevel;temperature
73662;BMP280;61956;52.540;13.382;2022-12-18T00:01:39;37503.97;;;-4.57
73662;BMP280;61956;52.540;13.382;2022-12-18T00:04:16;37474.78;;;-4.56
73662;BMP280;61956;52.540;13.382;2022-12-18T00:06:49;38641.28;;;-4.46
73662;BMP280;61956;52.540;13.382;2022-12-18T00:09:21;38889.78;;;-4.49
73662;BMP280;61956;52.540;13.382;2022-12-18T00:11:50;39320.22;;;-4.45
73662;BMP280;61956;52.540;13.382;2022-12-18T00:14:19;39467.19;;;-4.44
73662;BMP280;61956;52.540;13.382;2022-12-18T00:16:49;40353.00;;;-4.37
73662;BMP280;61956;52.540;13.382;2022-12-18T00:19:18;41175.22;;;-4.34
73662;BMP280;61956;52.540;13.382;2022-12-18T00:21:47;42435.78;;;-4.24
73662;BMP280;61956;52.540;13.382;2022-12-18T00:24:16;42680.78;;;-4.25
73662;BMP280;61956;52.540;13.382;2022-12-18T00:26:47;42893.22;;;-4.23
73662;BMP280;61956;52.540;13.382;2022-12-18T00:29:17;44473.19;;;-4.12
73662;BMP280;61956;52.540;13.382;2022-12-18T00:31:46;45223.00;;;-4.09
73662;BMP280;61956;52.540;13.382;2022-12-18T00:34:16;43744.75;;;-4.22
73662;BMP280;61956;52.540;13.382;2022-12-18T00:36:47;42283.34;;;-4.30
73662;BMP280;61956;52.540;13.382;2022-12-18T00:39:17;43659.44;;;-4.19
73662;BMP280;61956;52.540;13.382;2022-12-18T00:41:49;43783.22;;;-4.20
73662;BMP280;61956;52.540;13.382;2022-12-18T00:44:31;44965.22;;;-4.12
73662;BMP280;61956;52.540;13.382;2022-12-18T00:47:00;44692.59;;;-4.15
73662;BMP280;61956;52.540;13.382;2022-12-18T00:49:29;45229.16;;;-4.11
73662;BMP280;61956;52.540;13.382;2022-12-18T00:51:58;45143.72;;;-4.12
73662;BMP280;61956;52.540;13.382;2022-12-18T00:54:27;45452.72;;;-4.11
73662;BMP280;61956;52.540;13.382;2022-12-18T00:56:59;46026.09;;;-4.08
73662;BMP280;61956;52.540;13.382;2022-12-18T00:59:28;44531.13;;;-4.19
73662;BMP280;61956;52.540;13.382;2022-12-18T01:01:57;43825.38;;;-4.24
73662;BMP280;61956;52.540;13.382;2022-12-18T01:04:27;42390.06;;;-4.34
73662;BMP280;61956;52.540;13.382;2022-12-18T01:06:56;42456.06;;;-4.32
73662;BMP280;61956;52.540;13.382;2022-12-18T01:09:26;41739.78;;;-4.39
73662;BMP280;61956;52.540;13.382;2022-12-18T01:11:55;39820.31;;;-4.50
73662;BMP280;61956;52.540;13.382;2022-12-18T01:14:27;39042.25;;;-4.55
73662;BMP280;61956;52.540;13.382;2022-12-18T01:16:56;38468.63;;;-4.58
73662;BMP280;61956;52.540;13.382;2022-12-18T01:19:27;37827.25;;;-4.64
73662;BMP280;61956;52.540;13.382;2022-12-18T01:21:57;36925.88;;;-4.70
73662;BMP280;61956;52.540;13.382;2022-12-18T01:24:26;37593.84;;;-4.65
73662;BMP280;61956;52.540;13.382;2022-12-18T01:26:56;35876.09;;;-4.77
73662;BMP280;61956;52.540;13.382;2022-12-18T01:29:28;35040.47;;;-4.82
73662;BMP280;61956;52.540;13.382;2022-12-18T01:31:58;35705.97;;;-4.76
73662;BMP280;61956;52.540;13.382;2022-12-18T01:34:29;36271.31;;;-4.73
73662;BMP280;61956;52.540;13.382;2022-12-18T01:37:03;37418.13;;;-4.65
73662;BMP280;61956;52.540;13.382;2022-12-18T01:39:33;39062.06;;;-4.55
73662;BMP280;61956;52.540;13.382;2022-12-18T01:42:10;38877.44;;;-4.58
73662;BMP280;61956;52.540;13.382;2022-12-18T01:45:02;38026.97;;;-4.65
73662;BMP280;61956;52.540;13.382;2022-12-18T01:47:36;38452.41;;;-4.61
73662;BMP280;61956;52.540;13.382;2022-12-18T01:50:13;38267.59;;;-4.64
73662;BMP280;61956;52.540;13.382;2022-12-18T01:52:48;36972.53;;;-4.75
73662;BMP280;61956;52.540;13.382;2022-12-18T01:55:22;35678.53;;;-4.81
73662;BMP280;61956;52.540;13.382;2022-12-18T01:57:55;36820.69;;;-4.72
73662;BMP280;61956;52.540;13.382;2022-12-18T02:00:29;39411.56;;;-4.55
73662;BMP280;61956;52.540;13.382;2022-12-18T02:02:58;40312.78;;;-4.51
73662;BMP280;61956;52.540;13.382;2022-12-18T02:05:35;38260.50;;;-4.68
73662;BMP280;61956;52.540;13.382;2022-12-18T02:08:16;38067.72;;;-4.68
73662;BMP280;61956;52.540;13.382;2022-12-18T02:10:57;37081.91;;;-4.74
73662;BMP280;61956;52.540;13.382;2022-12-18T02:13:37;36896.13;;;-4.75
73662;BMP280;61956;52.540;13.382;2022-12-18T02:16:23;37665.47;;;-4.70
73662;BMP280;61956;52.540;13.382;2022-12-18T02:19:00;37418.91;;;-4.73
73662;BMP280;61956;52.540;13.382;2022-12-18T02:21:43;38969.91;;;-4.61
73662;BMP280;61956;52.540;13.382;2022-12-18T02:24:29;39891.84;;;-4.55
73662;BMP280;61956;52.540;13.382;2022-12-18T02:27:07;38301.53;;;-4.70
73662;BMP280;61956;52.540;13.382;2022-12-18T02:29:41;36474.03;;;-4.83
73662;BMP280;61956;52.540;13.382;2022-12-18T02:32:20;34391.53;;;-4.96
73662;BMP280;61956;52.540;13.382;2022-12-18T02:34:55;34577.53;;;-4.94
73662;BMP280;61956;52.540;13.382;2022-12-18T02:37:28;34758.88;;;-4.92
73662;BMP280;61956;52.540;13.382;2022-12-18T02:40:02;35440.72;;;-4.88
73662;BMP280;61956;52.540;13.382;2022-12-18T02:42:38;35660.00;;;-4.84
73662;BMP280;61956;52.540;13.382;2022-12-18T02:45:10;35992.06;;;-4.82
73662;BMP280;61956;52.540;13.382;2022-12-18T02:47:42;35564.81;;;-4.87
73662;BMP280;61956;52.540;13.382;2022-12-18T02:50:18;36798.09;;;-4.78
73662;BMP280;61956;52.540;13.382;2022-12-18T02:53:03;36186.41;;;-4.85
73662;BMP280;61956;52.540;13.382;2022-12-18T02:55:48;35986.38;;;-4.84
73662;BMP280;61956;52.540;13.382;2022-12-18T02:58:34;37142.22;;;-4.77
73662;BMP280;61956;52.540;13.382;2022-12-18T03:01:24;37968.81;;;-4.72
73662;BMP280;61956;52.540;13.382;2022-12-18T03:04:06;39317.41;;;-4.64
73662;BMP280;61956;52.540;13.382;2022-12-18T03:06:42;39647.91;;;-4.62
73662;BMP280;61956;52.540;13.382;2022-12-18T03:09:21;38742.44;;;-4.70
73662;BMP280;61956;52.540;13.382;2022-12-18T03:12:03;40361.13;;;-4.58
73662;BMP280;61956;52.540;13.382;2022-12-18T03:15:01;40696.50;;;-4.56
73662;BMP280;61956;52.540;13.382;2022-12-18T03:17:36;40800.28;;;-4.57
73662;BMP280;61956;52.540;13.382;2022-12-18T03:20:14;39228.53;;;-4.68
73662;BMP280;61956;52.540;13.382;2022-12-18T03:22:50;39900.00;;;-4.63
73662;BMP280;61956;52.540;13.382;2022-12-18T03:25:23;38900.34;;;-4.71
73662;BMP280;61956;52.540;13.382;2022-12-18T03:27:56;38281.81;;;-4.75
73662;BMP280;61956;52.540;13.382;2022-12-18T03:30:34;38518.28;;;-4.72
73662;BMP280;61956;52.540;13.382;2022-12-18T03:33:10;38442.94;;;-4.74
73662;BMP280;61956;52.540;13.382;2022-12-18T03:35:46;37394.94;;;-4.81
73662;BMP280;61956;52.540;13.382;2022-12-18T03:38:16;36407.19;;;-4.88
73662;BMP280;61956;52.540;13.382;2022-12-18T03:40:57;35971.28;;;-4.90
73662;BMP280;61956;52.540;13.382;2022-12-18T03:43:44;35678.56;;;-4.92
73662;BMP280;61956;52.540;13.382;2022-12-18T03:46:27;34840.50;;;-4.97
73662;BMP280;61956;52.540;13.382;2022-12-18T03:49:02;35549.28;;;-4.93
73662;BMP280;61956;52.540;13.382;2022-12-18T03:51:46;35385.44;;;-4.95
73662;BMP280;61956;52.540;13.382;2022-12-18T03:54:22;35271.47;;;-4.95
73662;BMP280;61956;52.540;13.382;2022-12-18T03:57:04;35444.00;;;-4.96
73662;BMP280;61956;52.540;13.382;2022-12-18T03:59:39;36343.66;;;-4.87
73662;BMP280;61956;52.540;13.382;2022-12-18T04:02:13;36702.50;;;-4.86
73662;BMP280;61956;52.540;13.382;2022-12-18T04:04:47;36795.72;;;-4.88
73662;BMP280;61956;52.540;13.382;2022-12-18T04:07:22;34104.53;;;-5.08
73662;BMP280;61956;52.540;13.382;2022-12-18T04:09:55;34571.53;;;-5.02
73662;BMP280;61956;52.540;13.382;2022-12-18T04:12:29;32982.94;;;-5.14
73662;BMP280;61956;52.540;13.382;2022-12-18T04:14:59;32834.81;;;-5.14
73662;BMP280;61956;52.540;13.382;2022-12-18T04:17:31;32207.94;;;-5.20
73662;BMP280;61956;52.540;13.382;2022-12-18T04:20:01;31483.09;;;-5.24
73662;BMP280;61956;52.540;13.382;2022-12-18T04:22:30;30920.06;;;-5.26
73662;BMP280;61956;52.540;13.382;2022-12-18T04:24:59;32320.53;;;-5.16
73662;BMP280;61956;52.540;13.382;2022-12-18T04:27:36;32627.03;;;-5.15
73662;BMP280;61956;52.540;13.382;2022-12-18T04:30:06;32933.78;;;-5.14
73662;BMP280;61956;52.540;13.382;2022-12-18T04:32:39;31786.97;;;-5.23
73662;BMP280;61956;52.540;13.382;2022-12-18T04:35:09;31463.78;;;-5.23
73662;BMP280;61956;52.540;13.382;2022-12-18T04:37:42;32522.69;;;-5.17
73662;BMP280;61956;52.540;13.382;2022-12-18T04:40:12;33627.19;;;-5.09
73662;BMP280;61956;52.540;13.382;2022-12-18T04:42:44;33554.88;;;-5.11
73662;BMP280;61956;52.540;13.382;2022-12-18T04:45:13;33135.56;;;-5.15
73662;BMP280;61956;52.540;13.382;2022-12-18T04:47:45;32765.97;;;-5.19
73662;BMP280;61956;52.540;13.382;2022-12-18T04:50:14;31712.09;;;-5.26
73662;BMP280;61956;52.540;13.382;2022-12-18T04:52:44;31316.75;;;-5.27
73662;BMP280;61956;52.540;13.382;2022-12-18T04:55:14;31658.25;;;-5.24
73662;BMP280;61956;52.540;13.382;2022-12-18T04:57:43;31067.03;;;-5.29
73662;BMP280;61956;52.540;13.382;2022-12-18T05:00:13;31316.97;;;-5.27
73662;BMP280;61956;52.540;13.382;2022-12-18T05:02:45;31400.63;;;-5.27
73662;BMP280;61956;52.540;13.382;2022-12-18T05:05:14;33222.88;;;-5.13
73662;BMP280;61956;52.540;13.382;2022-12-18T05:07:44;31928.81;;;-5.27
73662;BMP280;61956;52.540;13.382;2022-12-18T05:10:13;32556.81;;;-5.18
73662;BMP280;61956;52.540;13.382;2022-12-18T05:12:42;32055.91;;;-5.23
73662;BMP280;61956;52.540;13.382;2022-12-18T05:15:27;32610.47;;;-5.19
73662;BMP280;61956;52.540;13.382;2022-12-18T05:18:00;31612.56;;;-5.28
73662;BMP280;61956;52.540;13.382;2022-12-18T05:20:30;30679.22;;;-5.36
73662;BMP280;61956;52.540;13.382;2022-12-18T05:23:00;30850.81;;;-5.33
73662;BMP280;61956;52.540;13.382;2022-12-18T05:25:29;31172.66;;;-5.30
73662;BMP280;61956;52.540;13.382;2022-12-18T05:27:58;29841.50;;;-5.41
73662;BMP280;61956;52.540;13.382;2022-12-18T05:30:27;30277.34;;;-5.36
73662;BMP280;61956;52.540;13.382;2022-12-18T05:32:56;31098.06;;;-5.31
73662;BMP280;61956;52.540;13.382;2022-12-18T05:35:28;30588.41;;;-5.35
73662;BMP280;61956;52.540;13.382;2022-12-18T05:37:57;31456.75;;;-5.29
73662;BMP280;61956;52.540;13.382;2022-12-18T05:40:26;32015.78;;;-5.25
73662;BMP280;61956;52.540;13.382;2022-12-18T05:42:55;32158.69;;;-5.26
73662;BMP280;61956;52.540;13.382;2022-12-18T05:45:24;32992.81;;;-5.20
73662;BMP280;61956;52.540;13.382;2022-12-18T05:47:53;34169.59;;;-5.11
73662;BMP280;61956;52.540;13.382;2022-12-18T05:50:22;34758.91;;;-5.08
73662;BMP280;61956;52.540;13.382;2022-12-18T05:52:54;33933.09;;;-5.15
73662;BMP280;61956;52.540;13.382;2022-12-18T05:55:23;32937.19;;;-5.23
73662;BMP280;61956;52.540;13.382;2022-12-18T05:57:52;31926.88;;;-5.31
73662;BMP280;61956;52.540;13.382;2022-12-18T06:00:21;30294.84;;;-5.42
73662;BMP280;61956;52.540;13.382;2022-12-18T06:02:50;31398.31;;;-5.33
73662;BMP280;61956;52.540;13.382;2022-12-18T06:05:19;31685.75;;;-5.30
73662;BMP280;61956;52.540;13.382;2022-12-18T06:07:48;32479.28;;;-5.26
73662;BMP280;61956;52.540;13.382;2022-12-18T06:10:20;32142.59;;;-5.29
73662;BMP280;61956;52.540;13.382;2022-12-18T06:12:49;33194.81;;;-5.21
73662;BMP280;61956;52.540;13.382;2022-12-18T06:15:18;33360.44;;;-5.20
73662;BMP280;61956;52.540;13.382;2022-12-18T06:17:47;33129.50;;;-5.23
73662;BMP280;61956;52.540;13.382;2022-12-18T06:20:17;33325.44;;;-5.21
73662;BMP280;61956;52.540;13.382;2022-12-18T06:22:46;32911.63;;;-5.25
73662;BMP280;61956;52.540;13.382;2022-12-18T06:25:15;32917.00;;;-5.24
73662;BMP280;61956;52.540;13.382;2022-12-18T06:27:47;32861.59;;;-5.27
73662;BMP280;61956;52.540;13.382;2022-12-18T06:30:16;32272.06;;;-5.32
73662;BMP280;61956;52.540;13.382;2022-12-18T06:32:47;32424.31;;;-5.28
73662;BMP280;61956;52.540;13.382;2022-12-18T06:35:17;32906.47;;;-5.26
73662;BMP280;61956;52.540;13.382;2022-12-18T06:37:46;31938.34;;;-5.33
73662;BMP280;61956;52.540;13.382;2022-12-18T06:40:15;31978.03;;;-5.33
73662;BMP280;61956;52.540;13.382;2022-12-18T06:42:47;31755.16;;;-5.35
73662;BMP280;61956;52.540;13.382;2022-12-18T06:45:16;31703.34;;;-5.35
73662;BMP280;61956;52.540;13.382;2022-12-18T06:47:45;32273.38;;;-5.29
73662;BMP280;61956;52.540;13.382;2022-12-18T06:50:14;33872.69;;;-5.18
73662;BMP280;61956;52.540;13.382;2022-12-18T06:52:43;34548.31;;;-5.15
73662;BMP280;61956;52.540;13.382;2022-12-18T06:55:12;35254.56;;;-5.10
73662;BMP280;61956;52.540;13.382;2022-12-18T06:57:41;34500.91;;;-5.16
73662;BMP280;61956;52.540;13.382;2022-12-18T07:00:14;35137.47;;;-5.12
73662;BMP280;61956;52.540;13.382;2022-12-18T07:02:43;35248.66;;;-5.12
73662;BMP280;61956;52.540;13.382;2022-12-18T07:05:12;36094.84;;;-5.05
73662;BMP280;61956;52.540;13.382;2022-12-18T07:07:41;36935.50;;;-5.00
73662;BMP280;61956;52.540;13.382;2022-12-18T07:10:10;37148.16;;;-5.00
73662;BMP280;61956;52.540;13.382;2022-12-18T07:12:39;38036.31;;;-4.95
73662;BMP280;61956;52.540;13.382;2022-12-18T07:15:09;36374.66;;;-5.09
73662;BMP280;61956;52.540;13.382;2022-12-18T07:17:41;35316.88;;;-5.14
73662;BMP280;61956;52.540;13.382;2022-12-18T07:20:10;34870.50;;;-5.18
73662;BMP280;61956;52.540;13.382;2022-12-18T07:22:39;34846.50;;;-5.16
73662;BMP280;61956;52.540;13.382;2022-12-18T07:25:09;35630.69;;;-5.09
73662;BMP280;61956;52.540;13.382;2022-12-18T07:27:38;36280.22;;;-5.05
73662;BMP280;61956;52.540;13.382;2022-12-18T07:30:09;36576.41;;;-5.06
73662;BMP280;61956;52.540;13.382;2022-12-18T07:32:41;37230.03;;;-4.99
73662;BMP280;61956;52.540;13.382;2022-12-18T07:35:10;38113.28;;;-4.94
73662;BMP280;61956;52.540;13.382;2022-12-18T07:37:39;37203.75;;;-5.02
73662;BMP280;61956;52.540;13.382;2022-12-18T07:40:10;36789.28;;;-5.06
73662;BMP280;61956;52.540;13.382;2022-12-18T07:42:40;38567.44;;;-4.92
73662;BMP280;61956;52.540;13.382;2022-12-18T07:45:09;40098.44;;;-4.80
73662;BMP280;61956;52.540;13.382;2022-12-18T07:47:41;40679.72;;;-4.77
73662;BMP280;61956;52.540;13.382;2022-12-18T07:50:10;40929.63;;;-4.78
73662;BMP280;61956;52.540;13.382;2022-12-18T07:52:39;42147.00;;;-4.68
73662;BMP280;61956;52.540;13.382;2022-12-18T07:55:08;41484.47;;;-4.74
73662;BMP280;61956;52.540;13.382;2022-12-18T07:57:37;43362.19;;;-4.59
73662;BMP280;61956;52.540;13.382;2022-12-18T08:00:08;43963.09;;;-4.58
73662;BMP280;61956;52.540;13.382;2022-12-18T08:02:40;44042.81;;;-4.58
73662;BMP280;61956;52.540;13.382;2022-12-18T08:05:10;45229.81;;;-4.49
73662;BMP280;61956;52.540;13.382;2022-12-18T08:07:39;44675.56;;;-4.54
73662;BMP280;61956;52.540;13.382;2022-12-18T08:10:08;43546.00;;;-4.63
73662;BMP280;61956;52.540;13.382;2022-12-18T08:12:38;42114.25;;;-4.73
73662;BMP280;61956;52.540;13.382;2022-12-18T08:15:08;43308.53;;;-4.62
73662;BMP280;61956;52.540;13.382;2022-12-18T08:17:37;44691.44;;;-4.52
73662;BMP280;61956;52.540;13.382;2022-12-18T08:20:10;46212.03;;;-4.43
73662;BMP280;61956;52.540;13.382;2022-12-18T08:22:40;45864.88;;;-4.46
73662;BMP280;61956;52.540;13.382;2022-12-18T08:25:10;45622.69;;;-4.48
73662;BMP280;61956;52.540;13.382;2022-12-18T08:27:39;46053.91;;;-4.45
73662;BMP280;61956;52.540;13.382;2022-12-18T08:30:09;46527.78;;;-4.42
73662;BMP280;61956;52.540;13.382;2022-12-18T08:32:39;46859.50;;;-4.40
73662;BMP280;61956;52.540;13.382;2022-12-18T08:35:11;47473.41;;;-4.36
73662;BMP280;61956;52.540;13.382;2022-12-18T08:37:40;46966.31;;;-4.40
73662;BMP280;61956;52.540;13.382;2022-12-18T08:40:10;47446.78;;;-4.35
73662;BMP280;61956;52.540;13.382;2022-12-18T08:42:40;48172.41;;;-4.31
73662;BMP280;61956;52.540;13.382;2022-12-18T08:45:21;48790.00;;;-4.26
73662;BMP280;61956;52.540;13.382;2022-12-18T08:47:50;47969.69;;;-4.33
73662;BMP280;61956;52.540;13.382;2022-12-18T08:50:22;47312.31;;;-4.39
73662;BMP280;61956;52.540;13.382;2022-12-18T08:52:51;46569.31;;;-4.43
73662;BMP280;61956;52.540;13.382;2022-12-18T08:55:20;46203.22;;;-4.45
73662;BMP280;61956;52.540;13.382;2022-12-18T08:57:49;47629.91;;;-4.32
73662;BMP280;61956;52.540;13.382;2022-12-18T09:00:18;48776.16;;;-4.25
73662;BMP280;61956;52.540;13.382;2022-12-18T09:02:48;49892.94;;;-4.17
73662;BMP280;61956;52.540;13.382;2022-12-18T09:05:17;49304.03;;;-4.24
73662;BMP280;61956;52.540;13.382;2022-12-18T09:07:48;50217.47;;;-4.16
73662;BMP280;61956;52.540;13.382;2022-12-18T09:10:17;51522.25;;;-4.08
73662;BMP280;61956;52.540;13.382;2022-12-18T09:12:47;52177.25;;;-4.05
73662;BMP280;61956;52.540;13.382;2022-12-18T09:15:16;50377.72;;;-4.18
73662;BMP280;61956;52.540;13.382;2022-12-18T09:17:44;49658.31;;;-4.22
73662;BMP280;61956;52.540;13.382;2022-12-18T09:20:16;49872.69;;;-4.18
73662;BMP280;61956;52.540;13.382;2022-12-18T09:22:47;50125.03;;;-4.16
73662;BMP280;61956;52.540;13.382;2022-12-18T09:25:17;51978.81;;;-4.04
73662;BMP280;61956;52.540;13.382;2022-12-18T09:27:47;52713.75;;;-4.00
73662;BMP280;61956;52.540;13.382;2022-12-18T09:30:16;52149.88;;;-4.05
73662;BMP280;61956;52.540;13.382;2022-12-18T09:32:45;53603.34;;;-3.93
73662;BMP280;61956;52.540;13.382;2022-12-18T09:35:14;54552.81;;;-3.87
73662;BMP280;61956;52.540;13.382;2022-12-18T09:37:44;55994.25;;;-3.78
73662;BMP280;61956;52.540;13.382;2022-12-18T09:40:18;56295.31;;;-3.76
73662;BMP280;61956;52.540;13.382;2022-12-18T09:42:53;56195.91;;;-3.78
73662;BMP280;61956;52.540;13.382;2022-12-18T09:45:26;57829.34;;;-3.65
73662;BMP280;61956;52.540;13.382;2022-12-18T09:47:58;57272.00;;;-3.72
73662;BMP280;61956;52.540;13.382;2022-12-18T09:50:32;56865.97;;;-3.74
73662;BMP280;61956;52.540;13.382;2022-12-18T09:53:12;56824.38;;;-3.73
73662;BMP280;61956;52.540;13.382;2022-12-18T09:55:48;56710.81;;;-3.74
73662;BMP280;61956;52.540;13.382;2022-12-18T09:58:26;56393.47;;;-3.75
73662;BMP280;61956;52.540;13.382;2022-12-18T10:00:59;57657.06;;;-3.65
73662;BMP280;61956;52.540;13.382;2022-12-18T10:03:28;59121.47;;;-3.55
73662;BMP280;61956;52.540;13.382;2022-12-18T10:06:02;61633.44;;;-3.39
73662;BMP280;61956;52.540;13.382;2022-12-18T10:08:40;63113.69;;;-3.29
73662;BMP280;61956;52.540;13.382;2022-12-18T10:11:31;63724.88;;;-3.26
73662;BMP280;61956;52.540;13.382;2022-12-18T10:14:14;64181.50;;;-3.23
73662;BMP280;61956;52.540;13.382;2022-12-18T10:17:00;63580.72;;;-3.28
73662;BMP280;61956;52.540;13.382;2022-12-18T10:19:42;64773.00;;;-3.17
73662;BMP280;61956;52.540;13.382;2022-12-18T10:22:36;65035.00;;;-3.15
73662;BMP280;61956;52.540;13.382;2022-12-18T10:25:19;65037.50;;;-3.15
73662;BMP280;61956;52.540;13.382;2022-12-18T10:27:57;64472.47;;;-3.20
73662;BMP280;61956;52.540;13.382;2022-12-18T10:30:29;64644.75;;;-3.17
73662;BMP280;61956;52.540;13.382;2022-12-18T10:33:00;65318.09;;;-3.13
73662;BMP280;61956;52.540;13.382;2022-12-18T10:35:29;65184.31;;;-3.14
73662;BMP280;61956;52.540;13.382;2022-12-18T10:38:01;64883.19;;;-3.14
73662;BMP280;61956;52.540;13.382;2022-12-18T10:40:48;65575.66;;;-3.08
73662;BMP280;61956;52.540;13.382;2022-12-18T10:43:25;66481.09;;;-3.03
73662;BMP280;61956;52.540;13.382;2022-12-18T10:46:05;67831.53;;;-2.94
73662;BMP280;61956;52.540;13.382;2022-12-18T10:48:53;68602.00;;;-2.89
73662;BMP280;61956;52.540;13.382;2022-12-18T10:51:26;68440.38;;;-2.90
73662;BMP280;61956;52.540;13.382;2022-12-18T10:54:00;68668.31;;;-2.88
73662;BMP280;61956;52.540;13.382;2022-12-18T10:56:33;68984.16;;;-2.86
73662;BMP280;61956;52.540;13.382;2022-12-18T10:59:08;69480.94;;;-2.81
73662;BMP280;61956;52.540;13.382;2022-12-18T11:01:50;69801.97;;;-2.79
73662;BMP280;61956;52.540;13.382;2022-12-18T11:04:22;70098.97;;;-2.76
73662;BMP280;61956;52.540;13.382;2022-12-18T11:06:54;71082.66;;;-2.70
73662;BMP280;61956;52.540;13.382;2022-12-18T11:09:27;70285.38;;;-2.75
73662;BMP280;61956;52.540;13.382;2022-12-18T11:11:58;70044.28;;;-2.75
73662;BMP280;61956;52.540;13.382;2022-12-18T11:14:35;71985.56;;;-2.62
73662;BMP280;61956;52.540;13.382;2022-12-18T11:17:19;71238.66;;;-2.67
73662;BMP280;61956;52.540;13.382;2022-12-18T11:19:53;71427.38;;;-2.65
73662;BMP280;61956;52.540;13.382;2022-12-18T11:22:25;72410.41;;;-2.58
73662;BMP280;61956;52.540;13.382;2022-12-18T11:24:58;72644.22;;;-2.58
73662;BMP280;61956;52.540;13.382;2022-12-18T11:27:29;72820.53;;;-2.55
73662;BMP280;61956;52.540;13.382;2022-12-18T11:30:20;72437.19;;;-2.56
73662;BMP280;61956;52.540;13.382;2022-12-18T11:32:54;70799.28;;;-2.69
73662;BMP280;61956;52.540;13.382;2022-12-18T11:35:37;70440.59;;;-2.69
73662;BMP280;61956;52.540;13.382;2022-12-18T11:38:19;71159.25;;;-2.62
73662;BMP280;61956;52.540;13.382;2022-12-18T11:40:56;72341.38;;;-2.54
73662;BMP280;61956;52.540;13.382;2022-12-18T11:43:35;72590.31;;;-2.54
73662;BMP280;61956;52.540;13.382;2022-12-18T11:46:14;72614.63;;;-2.52
73662;BMP280;61956;52.540;13.382;2022-12-18T11:48:52;71731.09;;;-2.58
73662;BMP280;61956;52.540;13.382;2022-12-18T11:51:29;71543.44;;;-2.60
73662;BMP280;61956;52.540;13.382;2022-12-18T11:54:11;70740.53;;;-2.63
73662;BMP280;61956;52.540;13.382;2022-12-18T11:56:46;70404.22;;;-2.65
73662;BMP280;61956;52.540;13.382;2022-12-18T11:59:26;69571.06;;;-2.69
73662;BMP280;61956;52.540;13.382;2022-12-18T12:02:20;68948.59;;;-2.74
73662;BMP280;61956;52.540;13.382;2022-12-18T12:05:17;67557.44;;;-2.82
73662;BMP280;61956;52.540;13.382;2022-12-18T12:07:58;66988.94;;;-2.84
73662;BMP280;61956;52.540;13.382;2022-12-18T12:10:42;66828.88;;;-2.86
73662;BMP280;61956;52.540;13.382;2022-12-18T12:13:33;68725.31;;;-2.71
73662;BMP280;61956;52.540;13.382;2022-12-18T12:16:17;68817.66;;;-2.72
73662;BMP280;61956;52.540;13.382;2022-12-18T12:19:02;69450.13;;;-2.67
73662;BMP280;61956;52.540;13.382;2022-12-18T12:21:48;69026.56;;;-2.71
73662;BMP280;61956;52.540;13.382;2022-12-18T12:24:37;68804.59;;;-2.72
73662;BMP280;61956;52.540;13.382;2022-12-18T12:27:22;69814.47;;;-2.65
73662;BMP280;61956;52.540;13.382;2022-12-18T12:30:03;68756.38;;;-2.73
73662;BMP280;61956;52.540;13.382;2022-12-18T12:33:04;67629.75;;;-2.80
73662;BMP280;61956;52.540;13.382;2022-12-18T12:35:59;67984.16;;;-2.77
73662;BMP280;61956;52.540;13.382;2022-12-18T12:44:16;69370.84;;;-2.66
73662;BMP280;61956;52.540;13.382;2022-12-18T12:46:48;69624.13;;;-2.64
73662;BMP280;61956;52.540;13.382;2022-12-18T12:49:26;70082.31;;;-2.63
73662;BMP280;61956;52.540;13.382;2022-12-18T12:52:04;71022.03;;;-2.56
73662;BMP280;61956;52.540;13.382;2022-12-18T12:54:39;71345.91;;;-2.54
73662;BMP280;61956;52.540;13.382;2022-12-18T12:57:13;71922.34;;;-2.51
73662;BMP280;61956;52.540;13.382;2022-12-18T12:59:51;72355.63;;;-2.48
73662;BMP280;61956;52.540;13.382;2022-12-18T13:02:34;72411.50;;;-2.47
73662;BMP280;61956;52.540;13.382;2022-12-18T13:05:16;71738.25;;;-2.51
73662;BMP280;61956;52.540;13.382;2022-12-18T13:07:57;71372.69;;;-2.52
73662;BMP280;61956;52.540;13.382;2022-12-18T13:10:38;70971.44;;;-2.54
73662;BMP280;61956;52.540;13.382;2022-12-18T13:13:10;70864.81;;;-2.55
73662;BMP280;61956;52.540;13.382;2022-12-18T13:15:39;70586.75;;;-2.57
73662;BMP280;61956;52.540;13.382;2022-12-18T13:18:15;71700.81;;;-2.49
73662;BMP280;61956;52.540;13.382;2022-12-18T13:20:50;71887.97;;;-2.48
73662;BMP280;61956;52.540;13.382;2022-12-18T13:23:34;70773.81;;;-2.56
73662;BMP280;61956;52.540;13.382;2022-12-18T13:26:30;71322.09;;;-2.50
73662;BMP280;61956;52.540;13.382;2022-12-18T13:29:02;71005.22;;;-2.53
73662;BMP280;61956;52.540;13.382;2022-12-18T13:34:48;71032.84;;;-2.53
73662;BMP280;61956;52.540;13.382;2022-12-18T13:37:43;70953.50;;;-2.52
73662;BMP280;61956;52.540;13.382;2022-12-18T13:40:58;71788.50;;;-2.47
73662;BMP280;61956;52.540;13.382;2022-12-18T13:43:35;71683.19;;;-2.49
73662;BMP280;61956;52.540;13.382;2022-12-18T13:46:23;71274.88;;;-2.50
73662;BMP280;61956;52.540;13.382;2022-12-18T13:49:01;71593.81;;;-2.48
73662;BMP280;61956;52.540;13.382;2022-12-18T13:51:33;70538.69;;;-2.54
73662;BMP280;61956;52.540;13.382;2022-12-18T13:54:16;70314.53;;;-2.55
73662;BMP280;61956;52.540;13.382;2022-12-18T13:56:51;70564.34;;;-2.54
73662;BMP280;61956;52.540;13.382;2022-12-18T13:59:21;70154.09;;;-2.57
73662;BMP280;61956;52.540;13.382;2022-12-18T14:01:53;69978.25;;;-2.57
73662;BMP280;61956;52.540;13.382;2022-12-18T14:04:26;69654.03;;;-2.60
73662;BMP280;61956;52.540;13.382;2022-12-18T14:07:01;68560.94;;;-2.65
73662;BMP280;61956;52.540;13.382;2022-12-18T14:09:36;68136.06;;;-2.68
73662;BMP280;61956;52.540;13.382;2022-12-18T14:12:14;67573.28;;;-2.71
73662;BMP280;61956;52.540;13.382;2022-12-18T14:14:59;66379.53;;;-2.79
73662;BMP280;61956;52.540;13.382;2022-12-18T14:17:28;66097.13;;;-2.80
73662;BMP280;61956;52.540;13.382;2022-12-18T14:20:00;66056.53;;;-2.81
73662;BMP280;61956;52.540;13.382;2022-12-18T14:22:30;65279.28;;;-2.86
73662;BMP280;61956;52.540;13.382;2022-12-18T14:25:14;64570.59;;;-2.90
73662;BMP280;61956;52.540;13.382;2022-12-18T14:27:52;64441.78;;;-2.91
73662;BMP280;61956;52.540;13.382;2022-12-18T14:30:26;64686.34;;;-2.90
73662;BMP280;61956;52.540;13.382;2022-12-18T14:33:05;64833.16;;;-2.88
73662;BMP280;61956;52.540;13.382;2022-12-18T14:35:40;65923.09;;;-2.81
73662;BMP280;61956;52.540;13.382;2022-12-18T14:38:21;65664.84;;;-2.84
73662;BMP280;61956;52.540;13.382;2022-12-18T14:41:01;66005.84;;;-2.81
73662;BMP280;61956;52.540;13.382;2022-12-18T14:43:37;65823.28;;;-2.83
73662;BMP280;61956;52.540;13.382;2022-12-18T14:46:26;66416.63;;;-2.79